Tucu Tucu, Argentina
Current Conditions -  °F | °C
As of 7:00 AM on Thursday 27 Nov 2014 (Local Time) from SCBA Reporting Station
Overcast Overcast  
Wind Chill: 39°   Ceiling: Unl
Heat Index: 45°   Visibility: 6mi
Dew Point: 36°   Wind: 10mph
Humidity: 71%   Direction: 310°NW
Pressure: 29.83"   Gusts: NA
Location:  48.44°S, 71.84°W
Report Text: SCBA 271000Z AUTO 31009KT 9999 VV/// 07/02 Q1010
Loading
Personal Weather Stations






























Interactive Weather Map New forecast layout! Learn more

10-Day Weather Forecast

Advertisements
Track Severe Weather on mobile